Aérodrome :
LOGIN :

S'inscrire | Disclaimer

   EN    FR    IT 

 










Légende :    VFR   VFR Marginal   IFR   IFR Intensif   IFR Très Intensif
Visi : 
Plafond : 
>= 8 km
>= 3000ft
5 à 8 km
1000 à 3000 ft
1500m à 5 km
500 à 1000 ft
800 à 1500m
200 à 500 ft
< 800m
< 200 ft
Symboles :   Orages  Brouillard  Fortes neiges  Fortes précipitations  Vent > 20 kt
SIGMETs :   Divers  Orages  Givrage  Turbulence  Onde Orograph.  Cendres Volcan.






- Altitude de l'aérodrome : 16 ft
- Code IATA : EAS


LESO - San Sebastian Fuenterrabia

DERNIER METAR :
  • 151230Z 35007KT 260V040 9999 -RA SCT030 BKN045 10/05 Q1002

METARs EXPIRÉS :
  • 151200Z 35008G18KT 290V050 9999 SCT026 BKN035 BKN045 10/05 Q1002
  • 151130Z 34007KT 280V050 9999 BKN026 BKN038 10/06 Q1002
  • 151100Z 34008KT 280V050 9999 BKN024 BKN033 10/06 Q1001
  • 151030Z 33009G20KT 280V020 9999 BKN022 BKN032 10/06 Q1000
  • 151000Z 23009KT 200V300 9999 -RA SCT020 BKN033 BKN042 07/06 Q0999
  • 150930Z 22008KT 170V270 7000 -RA SCT022 BKN035 BKN042 06/05 Q0999

TAF TAF LESO
Valide du 15 à 12h jusqu'au 16 à 12h UTC


151100Z 1512/1612 34009KT 9999 SCT025 BKN040 TX10/1514Z TN04/1522Z
TEMPO 1512/1612 3000 RA SHRA SCT025TCU
PROB40
TEMPO 1512/1612 31012G22KT SHGR TS BKN010 BKN020CB



MET'MAP, la Météo Aéronautique d'un coup d'oeil ! - Copyright ORBIFLY Décembre 2007 - Disclaimer

ORBIFLY MET'MAP TEAM :

Programmation & Développement : Alexandra Zaïnal
Conception & Développement : Baudouin d'Aumeries
Co-Programmation & Développement : Marc-Olivier Méhu
Soutien technique & logistique : Manuel Goepfert

Contact : metmap@orbifly.com




SOURCES & CREDITS :

   NOAA